sensor_id;sensor_type;location;lat;lon;timestamp;temperature;humidity
14016;DHT22;7083;48.854;9.158;2022-07-10T00:02:03;15.80;99.90
14016;DHT22;7083;48.854;9.158;2022-07-10T00:04:30;15.80;99.90
14016;DHT22;7083;48.854;9.158;2022-07-10T00:06:57;15.80;99.90
14016;DHT22;7083;48.854;9.158;2022-07-10T00:09:24;15.80;99.90
14016;DHT22;7083;48.854;9.158;2022-07-10T00:11:53;15.90;99.90
14016;DHT22;7083;48.854;9.158;2022-07-10T00:14:20;15.90;99.90
14016;DHT22;7083;48.854;9.158;2022-07-10T00:16:47;15.80;99.90
14016;DHT22;7083;48.854;9.158;2022-07-10T00:19:15;15.80;99.90
14016;DHT22;7083;48.854;9.158;2022-07-10T00:21:41;15.80;99.90
14016;DHT22;7083;48.854;9.158;2022-07-10T00:24:08;15.70;99.90
14016;DHT22;7083;48.854;9.158;2022-07-10T00:26:35;15.80;99.90
14016;DHT22;7083;48.854;9.158;2022-07-10T00:29:02;15.90;99.90
14016;DHT22;7083;48.854;9.158;2022-07-10T00:31:29;15.90;99.90
14016;DHT22;7083;48.854;9.158;2022-07-10T00:33:56;15.90;99.90
14016;DHT22;7083;48.854;9.158;2022-07-10T00:36:24;16.00;99.90
14016;DHT22;7083;48.854;9.158;2022-07-10T00:38:51;16.00;99.90
14016;DHT22;7083;48.854;9.158;2022-07-10T00:41:17;16.00;99.90
14016;DHT22;7083;48.854;9.158;2022-07-10T00:43:54;17.50;99.90
14016;DHT22;7083;48.854;9.158;2022-07-10T00:46:22;16.10;99.90
14016;DHT22;7083;48.854;9.158;2022-07-10T00:48:49;16.10;99.90
14016;DHT22;7083;48.854;9.158;2022-07-10T00:51:17;16.20;99.90
14016;DHT22;7083;48.854;9.158;2022-07-10T00:53:46;16.40;99.90
14016;DHT22;7083;48.854;9.158;2022-07-10T00:56:16;16.20;99.90
14016;DHT22;7083;48.854;9.158;2022-07-10T00:58:43;16.10;99.90
14016;DHT22;7083;48.854;9.158;2022-07-10T01:01:10;16.10;99.90
14016;DHT22;7083;48.854;9.158;2022-07-10T01:03:37;16.10;99.90
14016;DHT22;7083;48.854;9.158;2022-07-10T01:06:04;16.00;99.90
14016;DHT22;7083;48.854;9.158;2022-07-10T01:08:32;16.00;99.90
14016;DHT22;7083;48.854;9.158;2022-07-10T01:11:00;15.90;99.90
14016;DHT22;7083;48.854;9.158;2022-07-10T01:13:27;15.90;99.90
14016;DHT22;7083;48.854;9.158;2022-07-10T01:15:55;15.90;99.90
14016;DHT22;7083;48.854;9.158;2022-07-10T01:18:22;15.80;99.90
14016;DHT22;7083;48.854;9.158;2022-07-10T01:20:52;15.80;99.90
14016;DHT22;7083;48.854;9.158;2022-07-10T01:23:19;15.80;99.90
14016;DHT22;7083;48.854;9.158;2022-07-10T01:25:45;15.80;99.90
14016;DHT22;7083;48.854;9.158;2022-07-10T01:28:12;15.70;99.90
14016;DHT22;7083;48.854;9.158;2022-07-10T01:30:39;15.70;99.90
14016;DHT22;7083;48.854;9.158;2022-07-10T01:33:05;15.70;99.90
14016;DHT22;7083;48.854;9.158;2022-07-10T01:35:32;15.70;99.90
14016;DHT22;7083;48.854;9.158;2022-07-10T01:38:00;15.70;99.90
14016;DHT22;7083;48.854;9.158;2022-07-10T01:40:27;15.70;99.90
14016;DHT22;7083;48.854;9.158;2022-07-10T01:42:53;15.60;99.90
14016;DHT22;7083;48.854;9.158;2022-07-10T01:45:20;15.60;99.90
14016;DHT22;7083;48.854;9.158;2022-07-10T01:47:47;15.60;99.90
14016;DHT22;7083;48.854;9.158;2022-07-10T01:50:13;15.60;99.90
14016;DHT22;7083;48.854;9.158;2022-07-10T01:52:40;15.50;99.90
14016;DHT22;7083;48.854;9.158;2022-07-10T01:55:09;15.50;99.90
14016;DHT22;7083;48.854;9.158;2022-07-10T01:57:35;15.50;99.90
14016;DHT22;7083;48.854;9.158;2022-07-10T02:00:03;15.40;99.90
14016;DHT22;7083;48.854;9.158;2022-07-10T02:02:30;15.30;99.90
14016;DHT22;7083;48.854;9.158;2022-07-10T02:04:57;15.30;99.90
14016;DHT22;7083;48.854;9.158;2022-07-10T02:07:22;15.20;99.90
14016;DHT22;7083;48.854;9.158;2022-07-10T02:09:51;15.20;99.90
14016;DHT22;7083;48.854;9.158;2022-07-10T02:12:19;15.20;99.90
14016;DHT22;7083;48.854;9.158;2022-07-10T02:14:46;15.10;99.90
14016;DHT22;7083;48.854;9.158;2022-07-10T02:17:13;15.10;99.90
14016;DHT22;7083;48.854;9.158;2022-07-10T02:19:41;15.10;99.90
14016;DHT22;7083;48.854;9.158;2022-07-10T02:22:08;15.10;99.90
14016;DHT22;7083;48.854;9.158;2022-07-10T02:24:34;15.10;99.90
14016;DHT22;7083;48.854;9.158;2022-07-10T02:27:01;15.10;99.90
14016;DHT22;7083;48.854;9.158;2022-07-10T02:29:29;15.10;99.90
14016;DHT22;7083;48.854;9.158;2022-07-10T02:31:57;15.10;99.90
14016;DHT22;7083;48.854;9.158;2022-07-10T02:34:24;15.10;99.90
14016;DHT22;7083;48.854;9.158;2022-07-10T02:36:51;15.10;99.90
14016;DHT22;7083;48.854;9.158;2022-07-10T02:39:17;15.10;99.90
14016;DHT22;7083;48.854;9.158;2022-07-10T02:41:44;15.10;99.90
14016;DHT22;7083;48.854;9.158;2022-07-10T02:44:11;15.10;99.90
14016;DHT22;7083;48.854;9.158;2022-07-10T02:46:39;15.10;99.90
14016;DHT22;7083;48.854;9.158;2022-07-10T02:49:06;15.00;99.90
14016;DHT22;7083;48.854;9.158;2022-07-10T02:51:33;15.00;99.90
14016;DHT22;7083;48.854;9.158;2022-07-10T02:53:59;15.00;99.90
14016;DHT22;7083;48.854;9.158;2022-07-10T02:56:26;14.90;99.90
14016;DHT22;7083;48.854;9.158;2022-07-10T02:58:53;14.90;99.90
14016;DHT22;7083;48.854;9.158;2022-07-10T03:01:19;14.90;99.90
14016;DHT22;7083;48.854;9.158;2022-07-10T03:03:47;14.80;99.90
14016;DHT22;7083;48.854;9.158;2022-07-10T03:06:14;14.80;99.90
14016;DHT22;7083;48.854;9.158;2022-07-10T03:08:41;14.80;99.90
14016;DHT22;7083;48.854;9.158;2022-07-10T03:11:08;14.80;99.90
14016;DHT22;7083;48.854;9.158;2022-07-10T03:13:34;14.70;99.90
14016;DHT22;7083;48.854;9.158;2022-07-10T03:16:01;14.70;99.90
14016;DHT22;7083;48.854;9.158;2022-07-10T03:18:28;14.70;99.90
14016;DHT22;7083;48.854;9.158;2022-07-10T03:20:56;14.60;99.90
14016;DHT22;7083;48.854;9.158;2022-07-10T03:23:23;14.60;99.90
14016;DHT22;7083;48.854;9.158;2022-07-10T03:25:51;14.60;99.90
14016;DHT22;7083;48.854;9.158;2022-07-10T03:28:17;14.60;99.90
14016;DHT22;7083;48.854;9.158;2022-07-10T03:30:44;14.50;99.90
14016;DHT22;7083;48.854;9.158;2022-07-10T03:33:11;14.50;99.90
14016;DHT22;7083;48.854;9.158;2022-07-10T03:35:38;14.50;99.90
14016;DHT22;7083;48.854;9.158;2022-07-10T03:38:06;14.50;99.90
14016;DHT22;7083;48.854;9.158;2022-07-10T03:40:32;14.50;99.90
14016;DHT22;7083;48.854;9.158;2022-07-10T03:42:59;14.50;99.90
14016;DHT22;7083;48.854;9.158;2022-07-10T03:45:26;14.40;99.90
14016;DHT22;7083;48.854;9.158;2022-07-10T03:47:52;14.40;99.90
14016;DHT22;7083;48.854;9.158;2022-07-10T03:50:19;14.50;99.90
14016;DHT22;7083;48.854;9.158;2022-07-10T03:52:46;14.50;99.90
14016;DHT22;7083;48.854;9.158;2022-07-10T03:55:14;14.50;99.90
14016;DHT22;7083;48.854;9.158;2022-07-10T03:57:41;14.60;99.90
14016;DHT22;7083;48.854;9.158;2022-07-10T04:00:19;14.60;99.90
14016;DHT22;7083;48.854;9.158;2022-07-10T04:02:47;14.70;99.90
14016;DHT22;7083;48.854;9.158;2022-07-10T04:05:14;14.70;99.90
14016;DHT22;7083;48.854;9.158;2022-07-10T04:07:41;14.70;99.90
14016;DHT22;7083;48.854;9.158;2022-07-10T04:10:08;14.80;99.90
14016;DHT22;7083;48.854;9.158;2022-07-10T04:12:37;14.80;99.90
14016;DHT22;7083;48.854;9.158;2022-07-10T04:15:05;14.90;99.90
14016;DHT22;7083;48.854;9.158;2022-07-10T04:17:32;14.90;99.90
14016;DHT22;7083;48.854;9.158;2022-07-10T04:19:59;14.90;99.90
14016;DHT22;7083;48.854;9.158;2022-07-10T04:22:25;15.00;99.90
14016;DHT22;7083;48.854;9.158;2022-07-10T04:24:52;14.90;99.90
14016;DHT22;7083;48.854;9.158;2022-07-10T04:27:19;15.00;99.90
14016;DHT22;7083;48.854;9.158;2022-07-10T04:29:47;15.00;99.90
14016;DHT22;7083;48.854;9.158;2022-07-10T04:32:15;15.10;99.90
14016;DHT22;7083;48.854;9.158;2022-07-10T04:34:41;15.00;99.90
14016;DHT22;7083;48.854;9.158;2022-07-10T04:37:08;15.00;99.90
14016;DHT22;7083;48.854;9.158;2022-07-10T04:39:35;14.70;99.90
14016;DHT22;7083;48.854;9.158;2022-07-10T04:42:03;15.00;99.90
14016;DHT22;7083;48.854;9.158;2022-07-10T04:44:30;15.00;99.90
14016;DHT22;7083;48.854;9.158;2022-07-10T04:46:58;14.90;99.90
14016;DHT22;7083;48.854;9.158;2022-07-10T04:49:26;14.90;99.90
14016;DHT22;7083;48.854;9.158;2022-07-10T04:51:52;14.90;99.90
14016;DHT22;7083;48.854;9.158;2022-07-10T04:54:19;15.00;99.90
14016;DHT22;7083;48.854;9.158;2022-07-10T04:56:46;15.10;99.90
14016;DHT22;7083;48.854;9.158;2022-07-10T04:59:12;15.10;99.90
14016;DHT22;7083;48.854;9.158;2022-07-10T05:01:39;15.10;99.90
14016;DHT22;7083;48.854;9.158;2022-07-10T05:04:07;15.20;99.90
14016;DHT22;7083;48.854;9.158;2022-07-10T05:06:34;15.20;99.90
14016;DHT22;7083;48.854;9.158;2022-07-10T05:09:01;15.30;99.90
14016;DHT22;7083;48.854;9.158;2022-07-10T05:11:28;15.30;99.90
14016;DHT22;7083;48.854;9.158;2022-07-10T05:13:55;15.30;99.90
14016;DHT22;7083;48.854;9.158;2022-07-10T05:16:22;15.20;99.90
14016;DHT22;7083;48.854;9.158;2022-07-10T05:18:49;15.30;99.90
14016;DHT22;7083;48.854;9.158;2022-07-10T05:21:17;15.20;99.90
14016;DHT22;7083;48.854;9.158;2022-07-10T05:23:43;15.20;99.90
14016;DHT22;7083;48.854;9.158;2022-07-10T05:26:10;15.10;99.90
14016;DHT22;7083;48.854;9.158;2022-07-10T05:28:37;15.00;99.90
14016;DHT22;7083;48.854;9.158;2022-07-10T05:31:04;15.00;99.90
14016;DHT22;7083;48.854;9.158;2022-07-10T05:33:31;15.00;99.90
14016;DHT22;7083;48.854;9.158;2022-07-10T05:35:58;15.00;99.90
14016;DHT22;7083;48.854;9.158;2022-07-10T05:38:26;14.90;99.90
14016;DHT22;7083;48.854;9.158;2022-07-10T05:40:52;14.90;99.90
14016;DHT22;7083;48.854;9.158;2022-07-10T05:43:19;15.00;99.90
14016;DHT22;7083;48.854;9.158;2022-07-10T05:45:46;15.00;99.90
14016;DHT22;7083;48.854;9.158;2022-07-10T05:48:13;15.00;99.90
14016;DHT22;7083;48.854;9.158;2022-07-10T05:50:40;15.10;99.90
14016;DHT22;7083;48.854;9.158;2022-07-10T05:53:07;15.30;99.90
14016;DHT22;7083;48.854;9.158;2022-07-10T05:55:35;15.50;99.90
14016;DHT22;7083;48.854;9.158;2022-07-10T05:58:01;15.70;99.90
14016;DHT22;7083;48.854;9.158;2022-07-10T06:00:28;16.10;99.90
14016;DHT22;7083;48.854;9.158;2022-07-10T06:02:55;16.00;99.90
14016;DHT22;7083;48.854;9.158;2022-07-10T06:05:22;16.20;99.90
14016;DHT22;7083;48.854;9.158;2022-07-10T06:07:48;16.30;99.90
14016;DHT22;7083;48.854;9.158;2022-07-10T06:10:15;16.40;99.90
14016;DHT22;7083;48.854;9.158;2022-07-10T06:12:43;16.60;99.90
14016;DHT22;7083;48.854;9.158;2022-07-10T06:15:10;16.60;99.90
14016;DHT22;7083;48.854;9.158;2022-07-10T06:17:37;16.70;99.90
14016;DHT22;7083;48.854;9.158;2022-07-10T06:20:05;16.70;99.90
14016;DHT22;7083;48.854;9.158;2022-07-10T06:22:32;16.80;99.90
14016;DHT22;7083;48.854;9.158;2022-07-10T06:24:59;16.90;99.90
14016;DHT22;7083;48.854;9.158;2022-07-10T06:27:27;17.00;99.90
14016;DHT22;7083;48.854;9.158;2022-07-10T06:29:55;17.00;99.90
14016;DHT22;7083;48.854;9.158;2022-07-10T06:32:23;17.10;99.90
14016;DHT22;7083;48.854;9.158;2022-07-10T06:34:50;17.10;99.90
14016;DHT22;7083;48.854;9.158;2022-07-10T06:37:17;17.20;99.90
14016;DHT22;7083;48.854;9.158;2022-07-10T06:39:45;17.20;99.90
14016;DHT22;7083;48.854;9.158;2022-07-10T06:42:12;17.30;99.90
14016;DHT22;7083;48.854;9.158;2022-07-10T06:44:39;17.30;99.90
14016;DHT22;7083;48.854;9.158;2022-07-10T06:47:07;17.30;99.90
14016;DHT22;7083;48.854;9.158;2022-07-10T06:49:52;17.20;99.90
14016;DHT22;7083;48.854;9.158;2022-07-10T06:52:19;17.30;99.90
14016;DHT22;7083;48.854;9.158;2022-07-10T06:54:46;17.30;99.90
14016;DHT22;7083;48.854;9.158;2022-07-10T06:57:13;17.30;99.90
14016;DHT22;7083;48.854;9.158;2022-07-10T06:59:40;17.30;99.90
14016;DHT22;7083;48.854;9.158;2022-07-10T07:02:08;17.30;99.90
14016;DHT22;7083;48.854;9.158;2022-07-10T07:04:34;17.20;99.90
14016;DHT22;7083;48.854;9.158;2022-07-10T07:07:02;17.20;99.90
14016;DHT22;7083;48.854;9.158;2022-07-10T07:09:28;17.10;99.90
14016;DHT22;7083;48.854;9.158;2022-07-10T07:11:55;17.10;99.90
14016;DHT22;7083;48.854;9.158;2022-07-10T07:14:22;17.00;99.90
14016;DHT22;7083;48.854;9.158;2022-07-10T07:16:48;17.00;99.90
14016;DHT22;7083;48.854;9.158;2022-07-10T07:19:25;17.10;99.90
14016;DHT22;7083;48.854;9.158;2022-07-10T07:21:58;17.20;99.90
14016;DHT22;7083;48.854;9.158;2022-07-10T07:24:42;17.30;99.90
14016;DHT22;7083;48.854;9.158;2022-07-10T07:27:09;17.30;99.90
14016;DHT22;7083;48.854;9.158;2022-07-10T07:29:35;17.30;99.90
14016;DHT22;7083;48.854;9.158;2022-07-10T07:32:02;17.30;99.90
14016;DHT22;7083;48.854;9.158;2022-07-10T07:34:31;17.30;99.90
14016;DHT22;7083;48.854;9.158;2022-07-10T07:37:03;17.30;99.90
14016;DHT22;7083;48.854;9.158;2022-07-10T07:39:30;17.30;99.90
14016;DHT22;7083;48.854;9.158;2022-07-10T07:41:57;17.40;99.90
14016;DHT22;7083;48.854;9.158;2022-07-10T07:44:24;17.50;99.90
14016;DHT22;7083;48.854;9.158;2022-07-10T07:46:51;17.40;99.90
14016;DHT22;7083;48.854;9.158;2022-07-10T07:49:18;17.50;99.90
14016;DHT22;7083;48.854;9.158;2022-07-10T07:51:46;17.60;99.90
14016;DHT22;7083;48.854;9.158;2022-07-10T07:54:13;17.70;99.90
14016;DHT22;7083;48.854;9.158;2022-07-10T07:56:42;17.80;99.90
14016;DHT22;7083;48.854;9.158;2022-07-10T07:59:09;17.90;99.90
14016;DHT22;7083;48.854;9.158;2022-07-10T08:01:36;18.00;99.90
14016;DHT22;7083;48.854;9.158;2022-07-10T08:04:03;18.10;99.90
14016;DHT22;7083;48.854;9.158;2022-07-10T08:06:29;18.20;99.00
14016;DHT22;7083;48.854;9.158;2022-07-10T08:08:57;18.10;97.10
14016;DHT22;7083;48.854;9.158;2022-07-10T08:11:24;18.10;96.10
14016;DHT22;7083;48.854;9.158;2022-07-10T08:13:51;18.10;96.20
14016;DHT22;7083;48.854;9.158;2022-07-10T08:16:17;18.10;95.60
14016;DHT22;7083;48.854;9.158;2022-07-10T08:18:44;18.00;95.80
14016;DHT22;7083;48.854;9.158;2022-07-10T08:21:11;18.00;95.80
14016;DHT22;7083;48.854;9.158;2022-07-10T08:23:37;18.00;95.10
14016;DHT22;7083;48.854;9.158;2022-07-10T08:26:05;18.00;95.10
14016;DHT22;7083;48.854;9.158;2022-07-10T08:28:32;18.10;94.70
14016;DHT22;7083;48.854;9.158;2022-07-10T08:30:59;18.30;93.40
14016;DHT22;7083;48.854;9.158;2022-07-10T08:33:26;18.40;92.30
14016;DHT22;7083;48.854;9.158;2022-07-10T08:35:53;18.50;91.30
14016;DHT22;7083;48.854;9.158;2022-07-10T08:38:24;18.50;91.50
14016;DHT22;7083;48.854;9.158;2022-07-10T08:40:53;18.60;91.50
14016;DHT22;7083;48.854;9.158;2022-07-10T08:43:24;18.60;91.80
14016;DHT22;7083;48.854;9.158;2022-07-10T08:45:51;18.60;92.10
14016;DHT22;7083;48.854;9.158;2022-07-10T08:48:22;18.70;91.50
14016;DHT22;7083;48.854;9.158;2022-07-10T08:50:56;18.70;92.20
14016;DHT22;7083;48.854;9.158;2022-07-10T08:53:30;18.80;91.90
14016;DHT22;7083;48.854;9.158;2022-07-10T08:55:58;18.90;90.70
14016;DHT22;7083;48.854;9.158;2022-07-10T08:58:26;18.90;90.10
14016;DHT22;7083;48.854;9.158;2022-07-10T09:00:53;18.90;89.60
14016;DHT22;7083;48.854;9.158;2022-07-10T09:03:20;18.90;85.60
14016;DHT22;7083;48.854;9.158;2022-07-10T09:05:47;18.80;85.30
14016;DHT22;7083;48.854;9.158;2022-07-10T09:08:23;18.80;87.10
14016;DHT22;7083;48.854;9.158;2022-07-10T09:10:52;20.90;89.10
14016;DHT22;7083;48.854;9.158;2022-07-10T09:13:19;19.10;87.30
14016;DHT22;7083;48.854;9.158;2022-07-10T09:15:49;19.20;84.80
14016;DHT22;7083;48.854;9.158;2022-07-10T09:18:19;19.30;86.60
14016;DHT22;7083;48.854;9.158;2022-07-10T09:20:48;19.40;84.30
14016;DHT22;7083;48.854;9.158;2022-07-10T09:23:16;19.40;84.60
14016;DHT22;7083;48.854;9.158;2022-07-10T09:25:44;19.40;84.80
14016;DHT22;7083;48.854;9.158;2022-07-10T09:28:13;19.70;85.50
14016;DHT22;7083;48.854;9.158;2022-07-10T09:30:42;19.90;85.00
14016;DHT22;7083;48.854;9.158;2022-07-10T09:33:21;20.10;83.80
14016;DHT22;7083;48.854;9.158;2022-07-10T09:35:56;20.20;80.40
14016;DHT22;7083;48.854;9.158;2022-07-10T09:38:53;20.10;79.10
14016;DHT22;7083;48.854;9.158;2022-07-10T09:41:23;20.00;81.00
14016;DHT22;7083;48.854;9.158;2022-07-10T09:43:51;20.10;82.50
14016;DHT22;7083;48.854;9.158;2022-07-10T09:46:19;20.10;80.50
14016;DHT22;7083;48.854;9.158;2022-07-10T09:48:48;20.20;79.70
14016;DHT22;7083;48.854;9.158;2022-07-10T09:51:30;20.20;79.50
14016;DHT22;7083;48.854;9.158;2022-07-10T09:53:59;20.10;78.00
14016;DHT22;7083;48.854;9.158;2022-07-10T09:56:40;20.00;78.30
14016;DHT22;7083;48.854;9.158;2022-07-10T09:59:10;20.00;80.60
14016;DHT22;7083;48.854;9.158;2022-07-10T10:01:37;20.00;80.30
14016;DHT22;7083;48.854;9.158;2022-07-10T10:04:08;20.20;80.80
14016;DHT22;7083;48.854;9.158;2022-07-10T10:06:36;20.40;80.30
14016;DHT22;7083;48.854;9.158;2022-07-10T10:09:05;20.40;75.70
14016;DHT22;7083;48.854;9.158;2022-07-10T10:11:35;20.30;76.80
14016;DHT22;7083;48.854;9.158;2022-07-10T10:14:06;20.20;78.70
14016;DHT22;7083;48.854;9.158;2022-07-10T10:16:33;20.20;79.10
14016;DHT22;7083;48.854;9.158;2022-07-10T10:19:02;20.30;77.60
14016;DHT22;7083;48.854;9.158;2022-07-10T10:21:48;20.30;78.40
14016;DHT22;7083;48.854;9.158;2022-07-10T10:24:16;20.20;76.70
14016;DHT22;7083;48.854;9.158;2022-07-10T10:26:43;20.10;76.80
14016;DHT22;7083;48.854;9.158;2022-07-10T10:29:10;20.00;76.90
14016;DHT22;7083;48.854;9.158;2022-07-10T10:31:38;19.90;76.60
14016;DHT22;7083;48.854;9.158;2022-07-10T10:34:05;19.80;77.40
14016;DHT22;7083;48.854;9.158;2022-07-10T10:36:47;19.70;77.80
14016;DHT22;7083;48.854;9.158;2022-07-10T10:39:15;19.80;78.10
14016;DHT22;7083;48.854;9.158;2022-07-10T10:41:47;19.90;78.60
14016;DHT22;7083;48.854;9.158;2022-07-10T10:44:25;19.90;77.80
14016;DHT22;7083;48.854;9.158;2022-07-10T10:46:56;19.80;77.90
14016;DHT22;7083;48.854;9.158;2022-07-10T10:49:55;19.60;78.80
14016;DHT22;7083;48.854;9.158;2022-07-10T10:52:25;19.50;79.10
14016;DHT22;7083;48.854;9.158;2022-07-10T10:55:05;19.40;80.60
14016;DHT22;7083;48.854;9.158;2022-07-10T10:57:41;19.40;81.30
14016;DHT22;7083;48.854;9.158;2022-07-10T11:00:34;19.50;81.30
14016;DHT22;7083;48.854;9.158;2022-07-10T11:03:16;19.80;80.20
14016;DHT22;7083;48.854;9.158;2022-07-10T11:05:44;20.10;79.00
14016;DHT22;7083;48.854;9.158;2022-07-10T11:08:13;20.20;80.40
14016;DHT22;7083;48.854;9.158;2022-07-10T11:10:42;20.20;77.70
14016;DHT22;7083;48.854;9.158;2022-07-10T11:13:09;20.20;76.80
14016;DHT22;7083;48.854;9.158;2022-07-10T11:15:38;20.10;77.60
14016;DHT22;7083;48.854;9.158;2022-07-10T11:18:06;20.00;79.60
14016;DHT22;7083;48.854;9.158;2022-07-10T11:20:35;20.00;78.30
14016;DHT22;7083;48.854;9.158;2022-07-10T11:23:15;20.10;78.20
14016;DHT22;7083;48.854;9.158;2022-07-10T11:25:49;20.40;77.60
14016;DHT22;7083;48.854;9.158;2022-07-10T11:28:32;20.70;77.00
14016;DHT22;7083;48.854;9.158;2022-07-10T11:31:02;21.00;74.90
14016;DHT22;7083;48.854;9.158;2022-07-10T11:33:29;21.20;72.70
14016;DHT22;7083;48.854;9.158;2022-07-10T11:36:10;21.30;71.50
14016;DHT22;7083;48.854;9.158;2022-07-10T11:38:41;21.10;70.80
14016;DHT22;7083;48.854;9.158;2022-07-10T11:41:15;20.90;71.30
14016;DHT22;7083;48.854;9.158;2022-07-10T11:43:52;20.70;72.60
14016;DHT22;7083;48.854;9.158;2022-07-10T11:46:20;20.60;72.50
14016;DHT22;7083;48.854;9.158;2022-07-10T11:48:48;20.70;71.60
14016;DHT22;7083;48.854;9.158;2022-07-10T11:51:21;20.80;72.20
14016;DHT22;7083;48.854;9.158;2022-07-10T11:54:00;20.90;72.00
14016;DHT22;7083;48.854;9.158;2022-07-10T11:56:29;21.20;70.30
14016;DHT22;7083;48.854;9.158;2022-07-10T11:58:59;21.40;69.90
14016;DHT22;7083;48.854;9.158;2022-07-10T12:01:26;21.40;69.90
14016;DHT22;7083;48.854;9.158;2022-07-10T12:03:58;21.40;69.00
14016;DHT22;7083;48.854;9.158;2022-07-10T12:06:25;21.30;69.20
14016;DHT22;7083;48.854;9.158;2022-07-10T12:08:53;21.30;70.00
14016;DHT22;7083;48.854;9.158;2022-07-10T12:11:25;21.30;68.60
14016;DHT22;7083;48.854;9.158;2022-07-10T12:13:52;21.50;68.70
14016;DHT22;7083;48.854;9.158;2022-07-10T12:16:20;21.70;66.70
14016;DHT22;7083;48.854;9.158;2022-07-10T12:18:48;22.00;65.40
14016;DHT22;7083;48.854;9.158;2022-07-10T12:21:15;22.20;63.90
14016;DHT22;7083;48.854;9.158;2022-07-10T12:23:44;22.50;66.00
14016;DHT22;7083;48.854;9.158;2022-07-10T12:26:12;22.90;67.90
14016;DHT22;7083;48.854;9.158;2022-07-10T12:28:52;23.00;66.20
14016;DHT22;7083;48.854;9.158;2022-07-10T12:31:21;22.50;66.50
14016;DHT22;7083;48.854;9.158;2022-07-10T12:33:51;23.20;65.10
14016;DHT22;7083;48.854;9.158;2022-07-10T12:36:18;23.20;65.50
14016;DHT22;7083;48.854;9.158;2022-07-10T12:38:53;23.20;66.10
14016;DHT22;7083;48.854;9.158;2022-07-10T12:41:20;23.10;65.80
14016;DHT22;7083;48.854;9.158;2022-07-10T12:43:52;23.10;64.60
14016;DHT22;7083;48.854;9.158;2022-07-10T12:46:20;23.00;66.00
14016;DHT22;7083;48.854;9.158;2022-07-10T12:49:06;23.30;65.30
14016;DHT22;7083;48.854;9.158;2022-07-10T12:51:36;23.70;64.70
14016;DHT22;7083;48.854;9.158;2022-07-10T12:54:08;24.70;64.60
14016;DHT22;7083;48.854;9.158;2022-07-10T12:56:36;25.90;61.90
14016;DHT22;7083;48.854;9.158;2022-07-10T12:59:12;27.00;58.00
14016;DHT22;7083;48.854;9.158;2022-07-10T13:01:41;28.20;57.10
14016;DHT22;7083;48.854;9.158;2022-07-10T13:04:08;29.50;55.20
14016;DHT22;7083;48.854;9.158;2022-07-10T13:06:36;30.60;53.30
14016;DHT22;7083;48.854;9.158;2022-07-10T13:09:18;31.50;50.60
14016;DHT22;7083;48.854;9.158;2022-07-10T13:11:45;32.40;48.20
14016;DHT22;7083;48.854;9.158;2022-07-10T13:14:13;33.00;46.40
14016;DHT22;7083;48.854;9.158;2022-07-10T13:16:41;33.50;45.50
14016;DHT22;7083;48.854;9.158;2022-07-10T13:19:07;34.10;46.40
14016;DHT22;7083;48.854;9.158;2022-07-10T13:21:34;35.00;45.50
14016;DHT22;7083;48.854;9.158;2022-07-10T13:24:02;34.70;43.90
14016;DHT22;7083;48.854;9.158;2022-07-10T13:26:29;34.30;45.20
14016;DHT22;7083;48.854;9.158;2022-07-10T13:28:56;34.50;45.90
14016;DHT22;7083;48.854;9.158;2022-07-10T13:31:24;35.40;44.10
14016;DHT22;7083;48.854;9.158;2022-07-10T13:33:51;35.60;45.10
14016;DHT22;7083;48.854;9.158;2022-07-10T13:36:18;36.00;44.20
14016;DHT22;7083;48.854;9.158;2022-07-10T13:38:45;36.40;41.80
14016;DHT22;7083;48.854;9.158;2022-07-10T13:41:14;36.40;40.10
14016;DHT22;7083;48.854;9.158;2022-07-10T13:43:40;35.40;41.60
14016;DHT22;7083;48.854;9.158;2022-07-10T13:46:07;33.90;42.10
14016;DHT22;7083;48.854;9.158;2022-07-10T13:48:35;31.90;45.60
14016;DHT22;7083;48.854;9.158;2022-07-10T13:51:02;30.40;48.70
14016;DHT22;7083;48.854;9.158;2022-07-10T13:53:29;29.20;50.30
14016;DHT22;7083;48.854;9.158;2022-07-10T13:55:56;28.30;52.10
14016;DHT22;7083;48.854;9.158;2022-07-10T13:58:23;28.80;52.20
14016;DHT22;7083;48.854;9.158;2022-07-10T14:00:49;30.40;50.90
14016;DHT22;7083;48.854;9.158;2022-07-10T14:03:16;32.20;48.90
14016;DHT22;7083;48.854;9.158;2022-07-10T14:05:44;33.80;45.80
14016;DHT22;7083;48.854;9.158;2022-07-10T14:08:11;34.20;44.40
14016;DHT22;7083;48.854;9.158;2022-07-10T14:10:37;33.30;44.10
14016;DHT22;7083;48.854;9.158;2022-07-10T14:13:05;32.90;44.60
14016;DHT22;7083;48.854;9.158;2022-07-10T14:15:33;33.50;44.20
14016;DHT22;7083;48.854;9.158;2022-07-10T14:18:00;33.20;45.00
14016;DHT22;7083;48.854;9.158;2022-07-10T14:20:27;32.00;45.60
14016;DHT22;7083;48.854;9.158;2022-07-10T14:23:16;30.60;46.70
14016;DHT22;7083;48.854;9.158;2022-07-10T14:25:43;29.50;52.30
14016;DHT22;7083;48.854;9.158;2022-07-10T14:28:09;30.20;49.80
14016;DHT22;7083;48.854;9.158;2022-07-10T14:30:38;31.70;50.30
14016;DHT22;7083;48.854;9.158;2022-07-10T14:33:05;33.50;45.10
14016;DHT22;7083;48.854;9.158;2022-07-10T14:35:32;35.10;44.00
14016;DHT22;7083;48.854;9.158;2022-07-10T14:37:59;35.90;41.90
14016;DHT22;7083;48.854;9.158;2022-07-10T14:40:27;36.50;39.90
14016;DHT22;7083;48.854;9.158;2022-07-10T14:42:54;37.30;39.70
14016;DHT22;7083;48.854;9.158;2022-07-10T14:45:22;37.90;38.90
14016;DHT22;7083;48.854;9.158;2022-07-10T14:47:49;38.50;39.60
14016;DHT22;7083;48.854;9.158;2022-07-10T14:50:16;39.10;36.60
14016;DHT22;7083;48.854;9.158;2022-07-10T14:52:43;39.30;36.50
14016;DHT22;7083;48.854;9.158;2022-07-10T14:55:10;39.70;35.40
14016;DHT22;7083;48.854;9.158;2022-07-10T14:57:38;39.60;36.50
14016;DHT22;7083;48.854;9.158;2022-07-10T15:00:06;39.90;36.60
14016;DHT22;7083;48.854;9.158;2022-07-10T15:02:33;40.20;35.80
14016;DHT22;7083;48.854;9.158;2022-07-10T15:05:00;40.60;35.10
14016;DHT22;7083;48.854;9.158;2022-07-10T15:07:27;40.70;35.50
14016;DHT22;7083;48.854;9.158;2022-07-10T15:09:54;40.80;34.50
14016;DHT22;7083;48.854;9.158;2022-07-10T15:12:20;40.90;35.60
14016;DHT22;7083;48.854;9.158;2022-07-10T15:14:48;41.00;34.20
14016;DHT22;7083;48.854;9.158;2022-07-10T15:17:15;41.10;34.90
14016;DHT22;7083;48.854;9.158;2022-07-10T15:19:42;41.00;34.20
14016;DHT22;7083;48.854;9.158;2022-07-10T15:22:08;41.10;34.00
14016;DHT22;7083;48.854;9.158;2022-07-10T15:24:35;40.90;33.90
14016;DHT22;7083;48.854;9.158;2022-07-10T15:27:02;40.80;34.50
14016;DHT22;7083;48.854;9.158;2022-07-10T15:29:29;40.90;34.90
14016;DHT22;7083;48.854;9.158;2022-07-10T15:31:57;40.90;32.90
14016;DHT22;7083;48.854;9.158;2022-07-10T15:34:23;40.70;33.20
14016;DHT22;7083;48.854;9.158;2022-07-10T15:36:50;40.70;32.40
14016;DHT22;7083;48.854;9.158;2022-07-10T15:39:17;40.50;34.80
14016;DHT22;7083;48.854;9.158;2022-07-10T15:41:44;40.00;34.10
14016;DHT22;7083;48.854;9.158;2022-07-10T15:44:12;37.90;34.80
14016;DHT22;7083;48.854;9.158;2022-07-10T15:46:38;36.50;37.70
14016;DHT22;7083;48.854;9.158;2022-07-10T15:49:07;36.70;37.10
14016;DHT22;7083;48.854;9.158;2022-07-10T15:51:36;37.40;37.20
14016;DHT22;7083;48.854;9.158;2022-07-10T15:54:03;38.10;35.90